sensor_id;sensor_type;location;lat;lon;timestamp;P1;durP1;ratioP1;P2;durP2;ratioP2
30934;SDS011;51033;42.648;23.292;2022-07-29T00:01:29;7.78;;;4.20;;
30934;SDS011;51033;42.648;23.292;2022-07-29T00:03:55;7.13;;;5.25;;
30934;SDS011;51033;42.648;23.292;2022-07-29T00:06:20;5.57;;;4.78;;
30934;SDS011;51033;42.648;23.292;2022-07-29T00:08:46;6.05;;;4.68;;
30934;SDS011;51033;42.648;23.292;2022-07-29T00:11:11;6.43;;;4.53;;
30934;SDS011;51033;42.648;23.292;2022-07-29T00:13:37;6.22;;;4.65;;
30934;SDS011;51033;42.648;23.292;2022-07-29T00:16:02;6.53;;;4.60;;
30934;SDS011;51033;42.648;23.292;2022-07-29T00:18:28;8.65;;;5.13;;
30934;SDS011;51033;42.648;23.292;2022-07-29T00:20:54;7.20;;;5.47;;
30934;SDS011;51033;42.648;23.292;2022-07-29T00:23:19;7.43;;;5.07;;
30934;SDS011;51033;42.648;23.292;2022-07-29T00:25:45;8.30;;;5.70;;
30934;SDS011;51033;42.648;23.292;2022-07-29T00:28:10;7.03;;;5.50;;
30934;SDS011;51033;42.648;23.292;2022-07-29T00:30:36;6.32;;;4.75;;
30934;SDS011;51033;42.648;23.292;2022-07-29T00:33:01;7.07;;;5.30;;
30934;SDS011;51033;42.648;23.292;2022-07-29T00:35:26;5.25;;;4.50;;
30934;SDS011;51033;42.648;23.292;2022-07-29T00:38:14;7.60;;;5.07;;
30934;SDS011;51033;42.648;23.292;2022-07-29T00:40:41;5.93;;;4.70;;
30934;SDS011;51033;42.648;23.292;2022-07-29T00:43:07;6.15;;;4.63;;
30934;SDS011;51033;42.648;23.292;2022-07-29T00:45:32;6.55;;;5.32;;
30934;SDS011;51033;42.648;23.292;2022-07-29T00:47:58;7.40;;;4.85;;
30934;SDS011;51033;42.648;23.292;2022-07-29T00:50:23;6.25;;;4.40;;
30934;SDS011;51033;42.648;23.292;2022-07-29T00:52:49;5.82;;;4.63;;
30934;SDS011;51033;42.648;23.292;2022-07-29T00:55:16;5.75;;;3.92;;
30934;SDS011;51033;42.648;23.292;2022-07-29T00:57:43;8.07;;;4.43;;
30934;SDS011;51033;42.648;23.292;2022-07-29T01:00:11;7.18;;;4.95;;
30934;SDS011;51033;42.648;23.292;2022-07-29T01:02:38;6.63;;;5.32;;
30934;SDS011;51033;42.648;23.292;2022-07-29T01:05:04;5.25;;;4.30;;
30934;SDS011;51033;42.648;23.292;2022-07-29T01:07:31;8.15;;;5.00;;
30934;SDS011;51033;42.648;23.292;2022-07-29T01:09:58;6.05;;;4.70;;
30934;SDS011;51033;42.648;23.292;2022-07-29T01:12:26;6.68;;;4.72;;
30934;SDS011;51033;42.648;23.292;2022-07-29T01:14:54;6.32;;;4.57;;
30934;SDS011;51033;42.648;23.292;2022-07-29T01:17:28;6.50;;;5.43;;
30934;SDS011;51033;42.648;23.292;2022-07-29T01:19:59;5.30;;;4.07;;
30934;SDS011;51033;42.648;23.292;2022-07-29T01:30:46;6.13;;;4.72;;
30934;SDS011;51033;42.648;23.292;2022-07-29T01:33:15;6.40;;;5.30;;
30934;SDS011;51033;42.648;23.292;2022-07-29T01:36:01;7.40;;;5.30;;
30934;SDS011;51033;42.648;23.292;2022-07-29T01:38:34;8.05;;;5.40;;
30934;SDS011;51033;42.648;23.292;2022-07-29T01:41:08;6.80;;;5.25;;
30934;SDS011;51033;42.648;23.292;2022-07-29T01:43:39;8.27;;;5.70;;
30934;SDS011;51033;42.648;23.292;2022-07-29T01:46:11;8.30;;;6.10;;
30934;SDS011;51033;42.648;23.292;2022-07-29T01:48:45;7.50;;;5.78;;
30934;SDS011;51033;42.648;23.292;2022-07-29T01:51:18;7.33;;;5.43;;
30934;SDS011;51033;42.648;23.292;2022-07-29T01:56:35;6.05;;;5.10;;
30934;SDS011;51033;42.648;23.292;2022-07-29T01:59:04;8.20;;;5.10;;
30934;SDS011;51033;42.648;23.292;2022-07-29T02:01:32;9.10;;;5.70;;
30934;SDS011;51033;42.648;23.292;2022-07-29T02:04:01;7.03;;;6.07;;
30934;SDS011;51033;42.648;23.292;2022-07-29T02:06:30;9.90;;;5.82;;
30934;SDS011;51033;42.648;23.292;2022-07-29T02:08:58;7.57;;;6.03;;
30934;SDS011;51033;42.648;23.292;2022-07-29T02:11:24;8.63;;;5.97;;
30934;SDS011;51033;42.648;23.292;2022-07-29T02:13:51;8.43;;;5.60;;
30934;SDS011;51033;42.648;23.292;2022-07-29T02:16:18;6.68;;;5.95;;
30934;SDS011;51033;42.648;23.292;2022-07-29T02:18:46;7.95;;;5.50;;
30934;SDS011;51033;42.648;23.292;2022-07-29T02:21:14;8.65;;;6.22;;
30934;SDS011;51033;42.648;23.292;2022-07-29T02:23:44;9.00;;;6.93;;
30934;SDS011;51033;42.648;23.292;2022-07-29T02:26:13;8.32;;;6.00;;
30934;SDS011;51033;42.648;23.292;2022-07-29T02:28:39;10.32;;;6.97;;
30934;SDS011;51033;42.648;23.292;2022-07-29T02:31:06;9.02;;;7.25;;
30934;SDS011;51033;42.648;23.292;2022-07-29T02:33:32;8.38;;;6.57;;
30934;SDS011;51033;42.648;23.292;2022-07-29T02:35:59;10.20;;;7.93;;
30934;SDS011;51033;42.648;23.292;2022-07-29T02:38:27;9.82;;;7.85;;
30934;SDS011;51033;42.648;23.292;2022-07-29T02:41:15;9.20;;;6.72;;
30934;SDS011;51033;42.648;23.292;2022-07-29T02:43:44;14.18;;;9.10;;
30934;SDS011;51033;42.648;23.292;2022-07-29T02:46:14;9.02;;;7.13;;
30934;SDS011;51033;42.648;23.292;2022-07-29T02:48:48;9.32;;;7.55;;
30934;SDS011;51033;42.648;23.292;2022-07-29T02:51:23;8.93;;;6.53;;
30934;SDS011;51033;42.648;23.292;2022-07-29T02:53:54;12.00;;;8.63;;
30934;SDS011;51033;42.648;23.292;2022-07-29T02:56:23;9.27;;;6.53;;
30934;SDS011;51033;42.648;23.292;2022-07-29T02:58:57;7.80;;;6.97;;
30934;SDS011;51033;42.648;23.292;2022-07-29T03:01:26;11.52;;;7.55;;
30934;SDS011;51033;42.648;23.292;2022-07-29T03:03:56;7.88;;;6.65;;
30934;SDS011;51033;42.648;23.292;2022-07-29T03:06:26;10.73;;;7.75;;
30934;SDS011;51033;42.648;23.292;2022-07-29T03:13:54;8.90;;;6.82;;
30934;SDS011;51033;42.648;23.292;2022-07-29T03:16:20;9.77;;;7.32;;
30934;SDS011;51033;42.648;23.292;2022-07-29T03:18:48;9.57;;;7.10;;
30934;SDS011;51033;42.648;23.292;2022-07-29T03:21:14;12.98;;;7.63;;
30934;SDS011;51033;42.648;23.292;2022-07-29T03:23:43;9.32;;;7.10;;
30934;SDS011;51033;42.648;23.292;2022-07-29T03:26:13;10.32;;;7.78;;
30934;SDS011;51033;42.648;23.292;2022-07-29T03:28:39;10.88;;;7.63;;
30934;SDS011;51033;42.648;23.292;2022-07-29T03:31:04;11.15;;;8.10;;
30934;SDS011;51033;42.648;23.292;2022-07-29T03:33:30;10.05;;;8.15;;
30934;SDS011;51033;42.648;23.292;2022-07-29T03:35:55;17.15;;;8.73;;
30934;SDS011;51033;42.648;23.292;2022-07-29T03:38:21;11.40;;;7.90;;
30934;SDS011;51033;42.648;23.292;2022-07-29T03:40:51;7.82;;;6.80;;
30934;SDS011;51033;42.648;23.292;2022-07-29T03:43:20;11.30;;;8.10;;
30934;SDS011;51033;42.648;23.292;2022-07-29T03:45:48;11.82;;;7.32;;
30934;SDS011;51033;42.648;23.292;2022-07-29T03:48:18;9.48;;;8.05;;
30934;SDS011;51033;42.648;23.292;2022-07-29T03:50:45;8.65;;;6.43;;
30934;SDS011;51033;42.648;23.292;2022-07-29T03:53:12;7.57;;;6.32;;
30934;SDS011;51033;42.648;23.292;2022-07-29T03:55:40;9.88;;;7.63;;
30934;SDS011;51033;42.648;23.292;2022-07-29T03:58:08;9.93;;;7.40;;
30934;SDS011;51033;42.648;23.292;2022-07-29T04:00:35;15.05;;;8.50;;
30934;SDS011;51033;42.648;23.292;2022-07-29T04:03:02;7.80;;;6.53;;
30934;SDS011;51033;42.648;23.292;2022-07-29T04:05:29;8.40;;;6.53;;
30934;SDS011;51033;42.648;23.292;2022-07-29T04:07:54;8.60;;;6.88;;
30934;SDS011;51033;42.648;23.292;2022-07-29T04:10:20;8.10;;;6.35;;
30934;SDS011;51033;42.648;23.292;2022-07-29T04:12:45;10.35;;;6.47;;
30934;SDS011;51033;42.648;23.292;2022-07-29T04:15:12;10.13;;;7.43;;
30934;SDS011;51033;42.648;23.292;2022-07-29T04:17:38;11.13;;;7.93;;
30934;SDS011;51033;42.648;23.292;2022-07-29T04:20:03;8.15;;;6.68;;
30934;SDS011;51033;42.648;23.292;2022-07-29T04:22:29;10.57;;;7.63;;
30934;SDS011;51033;42.648;23.292;2022-07-29T04:24:55;12.73;;;8.35;;
30934;SDS011;51033;42.648;23.292;2022-07-29T04:27:20;11.25;;;8.57;;
30934;SDS011;51033;42.648;23.292;2022-07-29T04:29:45;15.77;;;9.85;;
30934;SDS011;51033;42.648;23.292;2022-07-29T04:32:12;11.85;;;8.93;;
30934;SDS011;51033;42.648;23.292;2022-07-29T04:34:37;10.18;;;7.80;;
30934;SDS011;51033;42.648;23.292;2022-07-29T04:37:03;11.15;;;8.43;;
30934;SDS011;51033;42.648;23.292;2022-07-29T04:39:28;15.13;;;8.65;;
30934;SDS011;51033;42.648;23.292;2022-07-29T04:41:54;11.43;;;8.38;;
30934;SDS011;51033;42.648;23.292;2022-07-29T04:44:19;14.18;;;7.13;;
30934;SDS011;51033;42.648;23.292;2022-07-29T04:46:44;10.77;;;7.80;;
30934;SDS011;51033;42.648;23.292;2022-07-29T04:49:10;9.98;;;7.13;;
30934;SDS011;51033;42.648;23.292;2022-07-29T04:51:35;10.55;;;7.20;;
30934;SDS011;51033;42.648;23.292;2022-07-29T04:54:02;10.05;;;8.05;;
30934;SDS011;51033;42.648;23.292;2022-07-29T04:56:27;12.02;;;7.88;;
30934;SDS011;51033;42.648;23.292;2022-07-29T04:58:53;10.02;;;7.60;;
30934;SDS011;51033;42.648;23.292;2022-07-29T05:01:18;7.78;;;6.60;;
30934;SDS011;51033;42.648;23.292;2022-07-29T05:03:44;7.55;;;6.03;;
30934;SDS011;51033;42.648;23.292;2022-07-29T05:06:10;9.95;;;6.43;;
30934;SDS011;51033;42.648;23.292;2022-07-29T05:08:35;10.05;;;6.05;;
30934;SDS011;51033;42.648;23.292;2022-07-29T05:11:01;6.60;;;5.38;;
30934;SDS011;51033;42.648;23.292;2022-07-29T05:13:27;8.85;;;6.68;;
30934;SDS011;51033;42.648;23.292;2022-07-29T05:15:52;7.47;;;5.72;;
30934;SDS011;51033;42.648;23.292;2022-07-29T05:18:18;12.18;;;7.97;;
30934;SDS011;51033;42.648;23.292;2022-07-29T05:20:43;8.30;;;6.63;;
30934;SDS011;51033;42.648;23.292;2022-07-29T05:23:09;10.57;;;8.02;;
30934;SDS011;51033;42.648;23.292;2022-07-29T05:25:37;7.60;;;6.63;;
30934;SDS011;51033;42.648;23.292;2022-07-29T05:28:03;7.72;;;6.10;;
30934;SDS011;51033;42.648;23.292;2022-07-29T05:30:28;9.73;;;6.60;;
30934;SDS011;51033;42.648;23.292;2022-07-29T05:32:54;9.75;;;6.32;;
30934;SDS011;51033;42.648;23.292;2022-07-29T05:35:19;7.65;;;5.97;;
30934;SDS011;51033;42.648;23.292;2022-07-29T05:37:45;6.75;;;5.65;;
30934;SDS011;51033;42.648;23.292;2022-07-29T05:40:10;8.57;;;6.10;;
30934;SDS011;51033;42.648;23.292;2022-07-29T05:42:35;7.47;;;6.05;;
30934;SDS011;51033;42.648;23.292;2022-07-29T05:45:01;9.18;;;5.53;;
30934;SDS011;51033;42.648;23.292;2022-07-29T05:47:30;5.90;;;5.30;;
30934;SDS011;51033;42.648;23.292;2022-07-29T05:49:55;11.32;;;5.85;;
30934;SDS011;51033;42.648;23.292;2022-07-29T05:52:21;6.65;;;5.30;;
30934;SDS011;51033;42.648;23.292;2022-07-29T05:54:46;6.53;;;4.60;;
30934;SDS011;51033;42.648;23.292;2022-07-29T05:57:16;5.88;;;5.22;;
30934;SDS011;51033;42.648;23.292;2022-07-29T05:59:46;6.85;;;5.10;;
30934;SDS011;51033;42.648;23.292;2022-07-29T06:02:12;6.75;;;4.93;;
30934;SDS011;51033;42.648;23.292;2022-07-29T06:04:38;6.53;;;5.07;;
30934;SDS011;51033;42.648;23.292;2022-07-29T06:07:04;8.82;;;5.07;;
30934;SDS011;51033;42.648;23.292;2022-07-29T06:09:29;5.68;;;4.70;;
30934;SDS011;51033;42.648;23.292;2022-07-29T06:11:55;6.47;;;4.53;;
30934;SDS011;51033;42.648;23.292;2022-07-29T06:14:21;8.40;;;5.20;;
30934;SDS011;51033;42.648;23.292;2022-07-29T06:16:46;11.68;;;4.47;;
30934;SDS011;51033;42.648;23.292;2022-07-29T06:19:12;6.68;;;5.05;;
30934;SDS011;51033;42.648;23.292;2022-07-29T06:21:41;5.93;;;4.65;;
30934;SDS011;51033;42.648;23.292;2022-07-29T06:24:10;9.55;;;4.88;;
30934;SDS011;51033;42.648;23.292;2022-07-29T06:26:37;9.40;;;4.40;;
30934;SDS011;51033;42.648;23.292;2022-07-29T06:29:04;5.63;;;4.80;;
30934;SDS011;51033;42.648;23.292;2022-07-29T06:31:29;8.88;;;5.30;;
30934;SDS011;51033;42.648;23.292;2022-07-29T06:33:55;5.07;;;4.47;;
30934;SDS011;51033;42.648;23.292;2022-07-29T06:36:20;6.78;;;4.97;;
30934;SDS011;51033;42.648;23.292;2022-07-29T06:38:45;5.38;;;4.82;;
30934;SDS011;51033;42.648;23.292;2022-07-29T06:41:11;8.65;;;5.25;;
30934;SDS011;51033;42.648;23.292;2022-07-29T06:43:41;5.43;;;4.82;;
30934;SDS011;51033;42.648;23.292;2022-07-29T06:46:10;6.93;;;4.38;;
30934;SDS011;51033;42.648;23.292;2022-07-29T06:48:39;5.78;;;4.38;;
30934;SDS011;51033;42.648;23.292;2022-07-29T06:51:07;10.00;;;5.20;;
30934;SDS011;51033;42.648;23.292;2022-07-29T06:53:33;10.05;;;5.25;;
30934;SDS011;51033;42.648;23.292;2022-07-29T06:55:59;6.90;;;4.85;;
30934;SDS011;51033;42.648;23.292;2022-07-29T06:58:25;7.95;;;4.13;;
30934;SDS011;51033;42.648;23.292;2022-07-29T07:00:51;6.93;;;4.35;;
30934;SDS011;51033;42.648;23.292;2022-07-29T07:03:17;9.15;;;4.35;;
30934;SDS011;51033;42.648;23.292;2022-07-29T07:05:43;4.70;;;4.03;;
30934;SDS011;51033;42.648;23.292;2022-07-29T07:08:10;6.78;;;4.82;;
30934;SDS011;51033;42.648;23.292;2022-07-29T07:10:37;7.07;;;4.93;;
30934;SDS011;51033;42.648;23.292;2022-07-29T07:13:03;6.55;;;4.70;;
30934;SDS011;51033;42.648;23.292;2022-07-29T07:15:29;8.27;;;4.40;;
30934;SDS011;51033;42.648;23.292;2022-07-29T07:17:55;7.22;;;4.47;;
30934;SDS011;51033;42.648;23.292;2022-07-29T07:20:20;9.20;;;4.72;;
30934;SDS011;51033;42.648;23.292;2022-07-29T07:22:46;6.38;;;4.40;;
30934;SDS011;51033;42.648;23.292;2022-07-29T07:25:12;5.65;;;4.25;;
30934;SDS011;51033;42.648;23.292;2022-07-29T07:27:38;5.32;;;4.20;;
30934;SDS011;51033;42.648;23.292;2022-07-29T07:30:04;5.25;;;4.50;;
30934;SDS011;51033;42.648;23.292;2022-07-29T07:32:31;5.05;;;3.75;;
30934;SDS011;51033;42.648;23.292;2022-07-29T07:34:57;5.07;;;4.25;;
30934;SDS011;51033;42.648;23.292;2022-07-29T07:37:22;5.80;;;3.88;;
30934;SDS011;51033;42.648;23.292;2022-07-29T07:39:49;8.23;;;4.25;;
30934;SDS011;51033;42.648;23.292;2022-07-29T07:42:15;6.95;;;4.90;;
30934;SDS011;51033;42.648;23.292;2022-07-29T07:44:40;7.25;;;4.40;;
30934;SDS011;51033;42.648;23.292;2022-07-29T07:47:06;5.10;;;3.72;;
30934;SDS011;51033;42.648;23.292;2022-07-29T07:49:31;5.20;;;4.70;;
30934;SDS011;51033;42.648;23.292;2022-07-29T07:51:56;7.68;;;3.65;;
30934;SDS011;51033;42.648;23.292;2022-07-29T07:54:22;9.10;;;5.13;;
30934;SDS011;51033;42.648;23.292;2022-07-29T07:56:47;5.00;;;3.92;;
30934;SDS011;51033;42.648;23.292;2022-07-29T07:59:16;6.20;;;4.13;;
30934;SDS011;51033;42.648;23.292;2022-07-29T08:01:41;4.20;;;3.78;;
30934;SDS011;51033;42.648;23.292;2022-07-29T08:04:07;4.88;;;3.53;;
30934;SDS011;51033;42.648;23.292;2022-07-29T08:06:33;4.93;;;4.03;;
30934;SDS011;51033;42.648;23.292;2022-07-29T08:09:00;4.03;;;3.22;;
30934;SDS011;51033;42.648;23.292;2022-07-29T08:11:25;4.18;;;3.10;;
30934;SDS011;51033;42.648;23.292;2022-07-29T08:13:51;3.55;;;3.20;;
30934;SDS011;51033;42.648;23.292;2022-07-29T08:16:17;3.67;;;3.15;;
30934;SDS011;51033;42.648;23.292;2022-07-29T08:18:43;4.05;;;3.28;;
30934;SDS011;51033;42.648;23.292;2022-07-29T08:21:09;3.33;;;3.00;;
30934;SDS011;51033;42.648;23.292;2022-07-29T08:23:36;6.85;;;4.35;;
30934;SDS011;51033;42.648;23.292;2022-07-29T08:26:07;5.22;;;3.30;;
30934;SDS011;51033;42.648;23.292;2022-07-29T08:28:36;3.33;;;2.90;;
30934;SDS011;51033;42.648;23.292;2022-07-29T08:31:02;5.68;;;3.50;;
30934;SDS011;51033;42.648;23.292;2022-07-29T08:33:28;3.42;;;3.00;;
30934;SDS011;51033;42.648;23.292;2022-07-29T08:35:53;4.30;;;3.42;;
30934;SDS011;51033;42.648;23.292;2022-07-29T08:38:18;3.28;;;2.97;;
30934;SDS011;51033;42.648;23.292;2022-07-29T08:40:44;4.65;;;3.28;;
30934;SDS011;51033;42.648;23.292;2022-07-29T08:43:12;3.97;;;3.45;;
30934;SDS011;51033;42.648;23.292;2022-07-29T08:45:45;4.75;;;3.35;;
30934;SDS011;51033;42.648;23.292;2022-07-29T08:48:13;3.78;;;3.08;;
30934;SDS011;51033;42.648;23.292;2022-07-29T08:50:40;3.75;;;3.13;;
30934;SDS011;51033;42.648;23.292;2022-07-29T08:53:07;4.05;;;3.20;;
30934;SDS011;51033;42.648;23.292;2022-07-29T08:55:40;4.88;;;3.53;;
30934;SDS011;51033;42.648;23.292;2022-07-29T08:58:07;6.70;;;3.25;;
30934;SDS011;51033;42.648;23.292;2022-07-29T09:00:33;3.33;;;3.00;;
30934;SDS011;51033;42.648;23.292;2022-07-29T09:03:01;6.10;;;3.50;;
30934;SDS011;51033;42.648;23.292;2022-07-29T09:05:29;4.15;;;3.47;;
30934;SDS011;51033;42.648;23.292;2022-07-29T09:07:56;4.18;;;3.45;;
30934;SDS011;51033;42.648;23.292;2022-07-29T09:10:22;5.45;;;3.45;;
30934;SDS011;51033;42.648;23.292;2022-07-29T09:12:48;3.70;;;3.28;;
30934;SDS011;51033;42.648;23.292;2022-07-29T09:15:14;3.53;;;3.00;;
30934;SDS011;51033;42.648;23.292;2022-07-29T09:17:46;3.28;;;2.95;;
30934;SDS011;51033;42.648;23.292;2022-07-29T09:20:15;4.38;;;3.45;;
30934;SDS011;51033;42.648;23.292;2022-07-29T09:22:42;3.20;;;2.72;;
30934;SDS011;51033;42.648;23.292;2022-07-29T09:25:08;5.13;;;3.33;;
30934;SDS011;51033;42.648;23.292;2022-07-29T09:27:37;4.03;;;3.63;;
30934;SDS011;51033;42.648;23.292;2022-07-29T09:30:04;3.72;;;2.97;;
30934;SDS011;51033;42.648;23.292;2022-07-29T09:32:53;5.03;;;3.50;;
30934;SDS011;51033;42.648;23.292;2022-07-29T09:35:26;3.83;;;3.50;;
30934;SDS011;51033;42.648;23.292;2022-07-29T09:37:52;5.97;;;3.40;;
30934;SDS011;51033;42.648;23.292;2022-07-29T09:40:20;3.25;;;2.88;;
30934;SDS011;51033;42.648;23.292;2022-07-29T09:42:47;3.60;;;3.30;;
30934;SDS011;51033;42.648;23.292;2022-07-29T09:45:25;4.45;;;3.90;;
30934;SDS011;51033;42.648;23.292;2022-07-29T09:47:52;4.07;;;3.28;;
30934;SDS011;51033;42.648;23.292;2022-07-29T09:50:17;5.68;;;3.30;;
30934;SDS011;51033;42.648;23.292;2022-07-29T09:52:52;6.85;;;4.05;;
30934;SDS011;51033;42.648;23.292;2022-07-29T09:55:18;3.83;;;3.42;;
30934;SDS011;51033;42.648;23.292;2022-07-29T09:57:44;4.50;;;3.60;;
30934;SDS011;51033;42.648;23.292;2022-07-29T10:02:40;4.45;;;3.42;;
30934;SDS011;51033;42.648;23.292;2022-07-29T10:05:22;4.05;;;3.40;;
30934;SDS011;51033;42.648;23.292;2022-07-29T10:07:54;4.03;;;3.30;;
30934;SDS011;51033;42.648;23.292;2022-07-29T10:13:04;4.70;;;3.85;;
30934;SDS011;51033;42.648;23.292;2022-07-29T10:15:37;4.03;;;3.42;;
30934;SDS011;51033;42.648;23.292;2022-07-29T10:18:05;7.55;;;3.63;;
30934;SDS011;51033;42.648;23.292;2022-07-29T10:20:32;6.53;;;3.83;;
30934;SDS011;51033;42.648;23.292;2022-07-29T10:22:58;4.28;;;3.38;;
30934;SDS011;51033;42.648;23.292;2022-07-29T10:25:24;4.50;;;3.67;;
30934;SDS011;51033;42.648;23.292;2022-07-29T10:27:50;3.63;;;3.17;;
30934;SDS011;51033;42.648;23.292;2022-07-29T10:30:17;4.65;;;3.88;;
30934;SDS011;51033;42.648;23.292;2022-07-29T10:41:39;10.02;;;4.15;;
30934;SDS011;51033;42.648;23.292;2022-07-29T10:44:16;5.68;;;3.85;;
30934;SDS011;51033;42.648;23.292;2022-07-29T10:46:44;4.55;;;3.88;;
30934;SDS011;51033;42.648;23.292;2022-07-29T10:49:17;4.38;;;3.90;;
30934;SDS011;51033;42.648;23.292;2022-07-29T10:54:19;3.25;;;2.95;;
30934;SDS011;51033;42.648;23.292;2022-07-29T10:59:40;4.40;;;3.95;;
30934;SDS011;51033;42.648;23.292;2022-07-29T11:07:23;4.47;;;3.63;;
30934;SDS011;51033;42.648;23.292;2022-07-29T11:10:19;3.45;;;3.15;;
30934;SDS011;51033;42.648;23.292;2022-07-29T11:12:45;3.28;;;2.97;;
30934;SDS011;51033;42.648;23.292;2022-07-29T11:15:13;4.43;;;3.80;;
30934;SDS011;51033;42.648;23.292;2022-07-29T11:20:30;8.45;;;4.07;;
30934;SDS011;51033;42.648;23.292;2022-07-29T11:23:23;5.18;;;3.22;;
30934;SDS011;51033;42.648;23.292;2022-07-29T11:26:13;5.57;;;3.47;;
30934;SDS011;51033;42.648;23.292;2022-07-29T11:28:51;4.00;;;3.20;;
30934;SDS011;51033;42.648;23.292;2022-07-29T11:31:19;5.50;;;3.33;;
30934;SDS011;51033;42.648;23.292;2022-07-29T11:39:49;4.32;;;3.30;;
30934;SDS011;51033;42.648;23.292;2022-07-29T11:45:03;4.20;;;3.72;;
30934;SDS011;51033;42.648;23.292;2022-07-29T11:47:31;3.78;;;3.30;;
30934;SDS011;51033;42.648;23.292;2022-07-29T11:49:58;5.13;;;3.40;;
30934;SDS011;51033;42.648;23.292;2022-07-29T11:52:35;4.85;;;3.72;;
30934;SDS011;51033;42.648;23.292;2022-07-29T11:55:08;3.45;;;3.15;;
30934;SDS011;51033;42.648;23.292;2022-07-29T11:57:34;3.95;;;3.55;;
30934;SDS011;51033;42.648;23.292;2022-07-29T12:00:00;4.43;;;3.88;;
30934;SDS011;51033;42.648;23.292;2022-07-29T12:02:43;5.30;;;3.78;;
30934;SDS011;51033;42.648;23.292;2022-07-29T12:05:09;4.15;;;3.45;;
30934;SDS011;51033;42.648;23.292;2022-07-29T12:07:38;3.80;;;3.17;;
30934;SDS011;51033;42.648;23.292;2022-07-29T12:10:04;8.23;;;3.95;;
30934;SDS011;51033;42.648;23.292;2022-07-29T12:12:31;5.70;;;4.00;;
30934;SDS011;51033;42.648;23.292;2022-07-29T12:14:58;4.45;;;3.75;;
30934;SDS011;51033;42.648;23.292;2022-07-29T12:17:26;4.90;;;3.90;;
30934;SDS011;51033;42.648;23.292;2022-07-29T12:19:54;5.97;;;4.28;;
30934;SDS011;51033;42.648;23.292;2022-07-29T12:22:38;6.20;;;4.45;;
30934;SDS011;51033;42.648;23.292;2022-07-29T12:25:12;4.15;;;3.75;;
30934;SDS011;51033;42.648;23.292;2022-07-29T12:30:13;3.85;;;3.25;;
30934;SDS011;51033;42.648;23.292;2022-07-29T12:35:19;3.85;;;3.40;;
30934;SDS011;51033;42.648;23.292;2022-07-29T12:37:46;4.65;;;4.13;;
30934;SDS011;51033;42.648;23.292;2022-07-29T12:40:13;4.15;;;3.75;;
30934;SDS011;51033;42.648;23.292;2022-07-29T12:42:41;4.30;;;3.90;;
30934;SDS011;51033;42.648;23.292;2022-07-29T12:45:31;4.22;;;3.83;;
30934;SDS011;51033;42.648;23.292;2022-07-29T12:47:56;6.05;;;3.80;;
30934;SDS011;51033;42.648;23.292;2022-07-29T12:50:22;4.38;;;3.97;;
30934;SDS011;51033;42.648;23.292;2022-07-29T12:52:48;4.38;;;3.50;;
30934;SDS011;51033;42.648;23.292;2022-07-29T12:55:13;4.10;;;3.67;;
30934;SDS011;51033;42.648;23.292;2022-07-29T12:57:49;4.22;;;3.78;;
30934;SDS011;51033;42.648;23.292;2022-07-29T13:00:21;5.28;;;3.67;;
30934;SDS011;51033;42.648;23.292;2022-07-29T13:02:53;3.70;;;3.35;;
30934;SDS011;51033;42.648;23.292;2022-07-29T13:05:23;3.97;;;3.42;;
30934;SDS011;51033;42.648;23.292;2022-07-29T13:07:49;4.80;;;3.95;;
30934;SDS011;51033;42.648;23.292;2022-07-29T13:10:19;5.00;;;3.90;;
30934;SDS011;51033;42.648;23.292;2022-07-29T13:15:46;4.13;;;3.35;;
30934;SDS011;51033;42.648;23.292;2022-07-29T13:18:34;5.40;;;3.63;;
30934;SDS011;51033;42.648;23.292;2022-07-29T13:21:12;4.65;;;3.72;;
30934;SDS011;51033;42.648;23.292;2022-07-29T13:23:40;3.67;;;3.30;;
30934;SDS011;51033;42.648;23.292;2022-07-29T13:26:09;4.35;;;3.95;;
30934;SDS011;51033;42.648;23.292;2022-07-29T13:28:38;4.07;;;3.60;;
30934;SDS011;51033;42.648;23.292;2022-07-29T13:31:04;4.45;;;3.33;;
30934;SDS011;51033;42.648;23.292;2022-07-29T13:33:30;4.45;;;3.88;;
30934;SDS011;51033;42.648;23.292;2022-07-29T13:35:56;4.18;;;3.20;;
30934;SDS011;51033;42.648;23.292;2022-07-29T13:38:21;4.38;;;3.75;;
30934;SDS011;51033;42.648;23.292;2022-07-29T13:40:47;4.82;;;3.53;;
30934;SDS011;51033;42.648;23.292;2022-07-29T13:43:12;3.78;;;3.42;;
30934;SDS011;51033;42.648;23.292;2022-07-29T13:45:39;6.07;;;3.55;;
30934;SDS011;51033;42.648;23.292;2022-07-29T13:48:04;3.67;;;3.38;;
30934;SDS011;51033;42.648;23.292;2022-07-29T13:50:31;3.20;;;2.78;;
30934;SDS011;51033;42.648;23.292;2022-07-29T13:52:57;4.97;;;3.65;;
30934;SDS011;51033;42.648;23.292;2022-07-29T13:55:22;5.57;;;4.18;;
30934;SDS011;51033;42.648;23.292;2022-07-29T13:57:48;3.35;;;3.05;;
30934;SDS011;51033;42.648;23.292;2022-07-29T14:00:13;4.30;;;3.75;;
30934;SDS011;51033;42.648;23.292;2022-07-29T14:02:40;4.50;;;3.45;;
30934;SDS011;51033;42.648;23.292;2022-07-29T14:05:06;4.00;;;3.60;;
30934;SDS011;51033;42.648;23.292;2022-07-29T14:10:07;4.20;;;3.78;;
30934;SDS011;51033;42.648;23.292;2022-07-29T14:12:32;3.75;;;3.08;;
30934;SDS011;51033;42.648;23.292;2022-07-29T14:14:58;4.75;;;4.13;;
30934;SDS011;51033;42.648;23.292;2022-07-29T14:17:24;3.70;;;3.30;;
30934;SDS011;51033;42.648;23.292;2022-07-29T14:19:49;4.18;;;3.78;;
30934;SDS011;51033;42.648;23.292;2022-07-29T14:22:15;5.25;;;4.25;;
30934;SDS011;51033;42.648;23.292;2022-07-29T14:24:40;4.15;;;3.40;;
30934;SDS011;51033;42.648;23.292;2022-07-29T14:27:06;4.47;;;3.50;;
30934;SDS011;51033;42.648;23.292;2022-07-29T14:29:33;4.47;;;3.70;;
30934;SDS011;51033;42.648;23.292;2022-07-29T14:31:59;4.32;;;3.55;;
30934;SDS011;51033;42.648;23.292;2022-07-29T14:34:25;4.75;;;3.80;;
30934;SDS011;51033;42.648;23.292;2022-07-29T14:36:50;5.50;;;3.58;;
30934;SDS011;51033;42.648;23.292;2022-07-29T14:39:16;5.32;;;4.35;;
30934;SDS011;51033;42.648;23.292;2022-07-29T14:41:41;4.45;;;4.03;;
30934;SDS011;51033;42.648;23.292;2022-07-29T14:44:07;3.90;;;3.50;;
30934;SDS011;51033;42.648;23.292;2022-07-29T14:46:33;6.90;;;4.50;;
30934;SDS011;51033;42.648;23.292;2022-07-29T14:48:59;4.18;;;3.78;;
30934;SDS011;51033;42.648;23.292;2022-07-29T14:51:25;4.95;;;4.00;;
30934;SDS011;51033;42.648;23.292;2022-07-29T14:53:50;4.25;;;3.85;;
30934;SDS011;51033;42.648;23.292;2022-07-29T14:56:16;4.95;;;3.95;;
30934;SDS011;51033;42.648;23.292;2022-07-29T14:58:41;7.43;;;4.55;;
30934;SDS011;51033;42.648;23.292;2022-07-29T15:01:07;5.13;;;4.63;;
30934;SDS011;51033;42.648;23.292;2022-07-29T15:03:32;4.53;;;4.13;;
30934;SDS011;51033;42.648;23.292;2022-07-29T15:05:57;6.50;;;3.65;;
30934;SDS011;51033;42.648;23.292;2022-07-29T15:08:24;4.07;;;3.78;;
30934;SDS011;51033;42.648;23.292;2022-07-29T15:10:50;3.92;;;3.58;;
30934;SDS011;51033;42.648;23.292;2022-07-29T15:13:15;4.25;;;3.85;;
30934;SDS011;51033;42.648;23.292;2022-07-29T15:15:41;5.18;;;4.47;;
30934;SDS011;51033;42.648;23.292;2022-07-29T15:18:06;5.30;;;3.90;;
30934;SDS011;51033;42.648;23.292;2022-07-29T15:20:32;8.73;;;4.38;;
30934;SDS011;51033;42.648;23.292;2022-07-29T15:22:57;6.55;;;4.00;;
30934;SDS011;51033;42.648;23.292;2022-07-29T15:25:23;4.50;;;4.10;;
30934;SDS011;51033;42.648;23.292;2022-07-29T15:27:50;4.40;;;4.00;;
30934;SDS011;51033;42.648;23.292;2022-07-29T15:30:16;4.70;;;4.20;;
30934;SDS011;51033;42.648;23.292;2022-07-29T15:32:44;4.57;;;4.10;;
30934;SDS011;51033;42.648;23.292;2022-07-29T15:35:10;5.25;;;4.10;;
30934;SDS011;51033;42.648;23.292;2022-07-29T15:37:39;4.70;;;4.30;;
30934;SDS011;51033;42.648;23.292;2022-07-29T15:40:05;4.63;;;3.70;;